Arnott, WI

7:49 PM CDT on October 22, 2014 (GMT -0500)
APRSWXNET Whiting WI US | Change Station
CLOSE
Current Station
Personal Weather Station
Location: Stevens Point, WI
Elevation: 1082 ft
Nearby Weather Stations

Elev 1082 ft 44.50 °N, 89.56 °W | Updated 51 minutes ago

Clear
Clear
50 °F
Feels Like 50 °F
N
0
Wind Variable Wind from South
Gusts 0.0 mph

Today
High -- | Low -- °F
--% Chance of Precip.
Yesterday
High -- | Low -- °F
Precip. -- in
7:22 AM 6:02 PM
Waning Crescent, 1% visible
Pressure 30.21 in
Visibility 10.0 miles
Clouds Clear
Dew Point 34 °F
Humidity 55%
Rainfall -999.00 in
Snow Depth Not available.
UV 0 out of 12
Pollen .10 out of 12
Air Quality Not available.
Flu Activity Sporadic
METAR KSTE 230035Z AUTO 13004KT 10SM CLR 06/00 A3021 RMK AO2 T00620004

More Conditions Fewer Conditions

Pressure 30.21 in
Visibility 10.0 miles
Clouds Clear
Dew Point 34 °F
Humidity 55%
Rainfall -999.00 in
Snow Depth Not available.
UV 0 out of 12
Pollen .10 out of 12
Air Quality Not available.
Flu Activity Sporadic
METAR KSTE 230035Z AUTO 13004KT 10SM CLR 06/00 A3021 RMK AO2 T00620004

More Conditions Fewer Conditions

10-Day Weather Forecast

Almanac

Astronomy

Oct. 22, 2014 Rise Set
Actual Time 7:22 AM CDT 6:02 PM CDT
Civil Twilight 6:52 AM CDT 6:31 PM CDT
Nautical Twilight 6:18 AM CDT 7:05 PM CDT
Astronomical Twilight 5:45 AM CDT 7:39 PM CDT
Moon 6:00 AM CDT (10/22) 5:30 PM CDT (10/22)
Length of Visible Light 11h 39m
Length of Day
10h 39m
Tomorrow will be 2m 55s shorter.
Waning Crescent, 1% of the Moon is Illuminated
Today
Waning Crescent
Oct 23
New
Oct 30
First Quarter
Nov 6
Full
Nov 14
Last Quarter

Today's Extremes

State Highs State Lows

Community

WunderPhotos

Upload Photos

1,764,098 photos uploaded!

WunderBlogs® & News

Nearby

Snow Depth

Station Depth Elevation
No new snow has been reported.

Earthquake Activity

City Distance Mag. Time & Date
No recent earthquake activity has been reported nearby.
Minimum magnitude displayed is 2.5.

Coastal Water Temperatures

Place Temperature
No Stations Reporting

Nearby Weather Stations